sensor_id;sensor_type;location;lat;lon;timestamp;pressure;altitude;pressure_sealevel;temperature;humidity
69171;BME280;56279;47.902;12.308;2023-03-20T00:00:42;95564.47;;;9.45;83.23
69171;BME280;56279;47.902;12.308;2023-03-20T00:02:43;95555.81;;;9.45;83.46
69171;BME280;56279;47.902;12.308;2023-03-20T00:04:46;95563.69;;;9.45;83.44
69171;BME280;56279;47.902;12.308;2023-03-20T00:06:47;95561.06;;;9.45;83.57
69171;BME280;56279;47.902;12.308;2023-03-20T00:08:51;95564.47;;;9.45;83.41
69171;BME280;56279;47.902;12.308;2023-03-20T00:10:53;95567.09;;;9.45;83.43
69171;BME280;56279;47.902;12.308;2023-03-20T00:12:54;95560.50;;;9.43;83.27
69171;BME280;56279;47.902;12.308;2023-03-20T00:14:59;95567.66;;;9.42;83.35
69171;BME280;56279;47.902;12.308;2023-03-20T00:17:09;95557.63;;;9.39;83.26
69171;BME280;56279;47.902;12.308;2023-03-20T00:19:22;95562.09;;;9.39;83.51
69171;BME280;56279;47.902;12.308;2023-03-20T00:21:23;95563.94;;;9.38;83.26
69171;BME280;56279;47.902;12.308;2023-03-20T00:23:25;95565.53;;;9.39;83.37
69171;BME280;56279;47.902;12.308;2023-03-20T00:25:27;95563.16;;;9.38;83.60
69171;BME280;56279;47.902;12.308;2023-03-20T00:27:28;95560.53;;;9.38;83.21
69171;BME280;56279;47.902;12.308;2023-03-20T00:29:30;95563.16;;;9.38;83.23
69171;BME280;56279;47.902;12.308;2023-03-20T00:31:37;95558.94;;;9.37;83.11
69171;BME280;56279;47.902;12.308;2023-03-20T00:33:39;95556.31;;;9.37;83.22
69171;BME280;56279;47.902;12.308;2023-03-20T00:35:40;95565.00;;;9.37;83.22
69171;BME280;56279;47.902;12.308;2023-03-20T00:37:41;95558.94;;;9.37;83.21
69171;BME280;56279;47.902;12.308;2023-03-20T00:39:42;95561.06;;;9.35;83.27
69171;BME280;56279;47.902;12.308;2023-03-20T00:41:50;95569.75;;;9.35;83.28
69171;BME280;56279;47.902;12.308;2023-03-20T00:46:38;95559.22;;;9.35;83.32
69171;BME280;56279;47.902;12.308;2023-03-20T00:48:41;95564.47;;;9.35;83.28
69171;BME280;56279;47.902;12.308;2023-03-20T00:50:44;95563.97;;;9.33;83.61
69171;BME280;56279;47.902;12.308;2023-03-20T00:52:45;95565.00;;;9.32;83.67
69171;BME280;56279;47.902;12.308;2023-03-20T00:54:47;95565.28;;;9.31;83.79
69171;BME280;56279;47.902;12.308;2023-03-20T00:57:05;95570.00;;;9.29;83.54
69171;BME280;56279;47.902;12.308;2023-03-20T00:59:15;95567.63;;;9.27;83.73
69171;BME280;56279;47.902;12.308;2023-03-20T01:01:17;95566.81;;;9.27;83.96
69171;BME280;56279;47.902;12.308;2023-03-20T01:03:21;95563.66;;;9.25;84.09
69171;BME280;56279;47.902;12.308;2023-03-20T01:05:23;95554.22;;;9.24;84.08
69171;BME280;56279;47.902;12.308;2023-03-20T01:07:28;95556.84;;;9.24;84.10
69171;BME280;56279;47.902;12.308;2023-03-20T01:09:29;95557.09;;;9.22;83.84
69171;BME280;56279;47.902;12.308;2023-03-20T01:11:31;95557.88;;;9.23;84.10
69171;BME280;56279;47.902;12.308;2023-03-20T01:13:32;95557.59;;;9.24;84.07
69171;BME280;56279;47.902;12.308;2023-03-20T01:15:34;95561.03;;;9.25;83.73
69171;BME280;56279;47.902;12.308;2023-03-20T01:17:36;95561.31;;;9.23;83.89
69171;BME280;56279;47.902;12.308;2023-03-20T01:19:37;95569.72;;;9.25;83.81
69171;BME280;56279;47.902;12.308;2023-03-20T01:21:40;95566.06;;;9.26;83.59
69171;BME280;56279;47.902;12.308;2023-03-20T01:23:41;95566.06;;;9.26;83.83
69171;BME280;56279;47.902;12.308;2023-03-20T01:25:49;95554.47;;;9.27;83.76
69171;BME280;56279;47.902;12.308;2023-03-20T01:27:52;95558.41;;;9.30;83.78
69171;BME280;56279;47.902;12.308;2023-03-20T01:29:53;95559.22;;;9.30;83.70
69171;BME280;56279;47.902;12.308;2023-03-20T01:31:55;95555.50;;;9.31;84.15
69171;BME280;56279;47.902;12.308;2023-03-20T01:34:02;95558.94;;;9.32;83.92
69171;BME280;56279;47.902;12.308;2023-03-20T01:36:03;95562.88;;;9.34;83.76
69171;BME280;56279;47.902;12.308;2023-03-20T01:38:25;95553.16;;;9.35;84.12
69171;BME280;56279;47.902;12.308;2023-03-20T01:40:31;95566.84;;;9.37;83.95
69171;BME280;56279;47.902;12.308;2023-03-20T01:42:36;95569.22;;;9.38;83.66
69171;BME280;56279;47.902;12.308;2023-03-20T01:44:38;95558.66;;;9.38;83.52
69171;BME280;56279;47.902;12.308;2023-03-20T01:46:39;95574.47;;;9.38;83.56
69171;BME280;56279;47.902;12.308;2023-03-20T01:51:06;95570.00;;;9.39;84.04
69171;BME280;56279;47.902;12.308;2023-03-20T01:53:26;95572.38;;;9.35;83.44
69171;BME280;56279;47.902;12.308;2023-03-20T01:55:34;95565.28;;;9.36;83.93
69171;BME280;56279;47.902;12.308;2023-03-20T01:57:37;95565.53;;;9.34;84.04
69171;BME280;56279;47.902;12.308;2023-03-20T01:59:50;95565.00;;;9.32;83.76
69171;BME280;56279;47.902;12.308;2023-03-20T02:01:53;95565.78;;;9.33;83.95
69171;BME280;56279;47.902;12.308;2023-03-20T02:03:57;95565.00;;;9.32;84.26
69171;BME280;56279;47.902;12.308;2023-03-20T02:06:23;95566.03;;;9.31;84.24
69171;BME280;56279;47.902;12.308;2023-03-20T02:08:44;95568.66;;;9.31;83.91
69171;BME280;56279;47.902;12.308;2023-03-20T02:10:48;95564.47;;;9.30;84.12
69171;BME280;56279;47.902;12.308;2023-03-20T02:12:56;95554.97;;;9.29;84.15
69171;BME280;56279;47.902;12.308;2023-03-20T02:15:06;95557.88;;;9.28;84.22
69171;BME280;56279;47.902;12.308;2023-03-20T02:17:36;95554.47;;;9.27;84.26
69171;BME280;56279;47.902;12.308;2023-03-20T02:35:03;95571.31;;;9.26;83.78
69171;BME280;56279;47.902;12.308;2023-03-20T02:46:19;95565.25;;;9.26;84.26
69171;BME280;56279;47.902;12.308;2023-03-20T02:50:50;95558.41;;;9.25;84.52
69171;BME280;56279;47.902;12.308;2023-03-20T02:55:17;95559.19;;;9.25;84.33
69171;BME280;56279;47.902;12.308;2023-03-20T02:57:38;95560.00;;;9.26;84.42
69171;BME280;56279;47.902;12.308;2023-03-20T02:59:45;95568.41;;;9.28;84.31
69171;BME280;56279;47.902;12.308;2023-03-20T03:01:53;95562.34;;;9.27;83.85
69171;BME280;56279;47.902;12.308;2023-03-20T03:04:25;95563.44;;;9.26;84.08
69171;BME280;56279;47.902;12.308;2023-03-20T03:06:31;95563.94;;;9.28;84.13
69171;BME280;56279;47.902;12.308;2023-03-20T03:08:36;95559.72;;;9.27;83.92
69171;BME280;56279;47.902;12.308;2023-03-20T03:10:45;95555.25;;;9.28;83.91
69171;BME280;56279;47.902;12.308;2023-03-20T03:12:50;95558.41;;;9.30;83.77
69171;BME280;56279;47.902;12.308;2023-03-20T03:14:56;95557.38;;;9.31;83.81
69171;BME280;56279;47.902;12.308;2023-03-20T03:17:02;95560.78;;;9.31;83.71
69171;BME280;56279;47.902;12.308;2023-03-20T03:19:14;95568.94;;;9.30;83.79
69171;BME280;56279;47.902;12.308;2023-03-20T03:21:20;95563.16;;;9.33;83.78
69171;BME280;56279;47.902;12.308;2023-03-20T03:23:34;95555.78;;;9.30;83.54
69171;BME280;56279;47.902;12.308;2023-03-20T03:25:49;95565.50;;;9.29;83.66
69171;BME280;56279;47.902;12.308;2023-03-20T03:30:13;95564.19;;;9.32;83.37
69171;BME280;56279;47.902;12.308;2023-03-20T03:32:36;95565.28;;;9.31;83.15
69171;BME280;56279;47.902;12.308;2023-03-20T03:34:42;95561.84;;;9.30;83.18
69171;BME280;56279;47.902;12.308;2023-03-20T03:41:23;95569.47;;;9.32;83.14
69171;BME280;56279;47.902;12.308;2023-03-20T03:43:34;95575.81;;;9.31;83.41
69171;BME280;56279;47.902;12.308;2023-03-20T03:45:46;95567.91;;;9.31;83.47
69171;BME280;56279;47.902;12.308;2023-03-20T03:48:19;95573.69;;;9.28;83.27
69171;BME280;56279;47.902;12.308;2023-03-20T03:50:31;95575.28;;;9.29;83.55
69171;BME280;56279;47.902;12.308;2023-03-20T03:52:37;95576.06;;;9.29;83.45
69171;BME280;56279;47.902;12.308;2023-03-20T03:54:44;95566.59;;;9.28;83.33
69171;BME280;56279;47.902;12.308;2023-03-20T03:57:06;95580.28;;;9.30;83.51
69171;BME280;56279;47.902;12.308;2023-03-20T03:59:17;95583.94;;;9.29;83.29
69171;BME280;56279;47.902;12.308;2023-03-20T04:01:21;95582.91;;;9.30;83.47
69171;BME280;56279;47.902;12.308;2023-03-20T04:03:29;95579.47;;;9.30;83.19
69171;BME280;56279;47.902;12.308;2023-03-20T04:05:35;95585.53;;;9.30;83.30
69171;BME280;56279;47.902;12.308;2023-03-20T04:07:38;95585.28;;;9.32;83.34
69171;BME280;56279;47.902;12.308;2023-03-20T04:09:39;95599.75;;;9.34;82.74
69171;BME280;56279;47.902;12.308;2023-03-20T04:11:40;95589.50;;;9.33;83.12
69171;BME280;56279;47.902;12.308;2023-03-20T04:13:44;95593.69;;;9.34;83.10
69171;BME280;56279;47.902;12.308;2023-03-20T04:15:48;95598.19;;;9.33;83.22
69171;BME280;56279;47.902;12.308;2023-03-20T04:17:50;95596.59;;;9.32;83.46
69171;BME280;56279;47.902;12.308;2023-03-20T04:19:52;95597.66;;;9.31;83.68
69171;BME280;56279;47.902;12.308;2023-03-20T04:21:54;95596.06;;;9.30;83.38
69171;BME280;56279;47.902;12.308;2023-03-20T04:23:55;95601.63;;;9.29;83.34
69171;BME280;56279;47.902;12.308;2023-03-20T04:25:58;95602.66;;;9.28;83.83
69171;BME280;56279;47.902;12.308;2023-03-20T04:28:03;95605.81;;;9.25;83.94
69171;BME280;56279;47.902;12.308;2023-03-20T04:30:18;95603.72;;;9.22;84.31
69171;BME280;56279;47.902;12.308;2023-03-20T04:32:55;95608.41;;;9.20;84.55
69171;BME280;56279;47.902;12.308;2023-03-20T04:35:26;95613.44;;;9.16;84.60
69171;BME280;56279;47.902;12.308;2023-03-20T04:37:32;95610.28;;;9.14;84.92
69171;BME280;56279;47.902;12.308;2023-03-20T04:39:38;95608.94;;;9.12;85.12
69171;BME280;56279;47.902;12.308;2023-03-20T04:41:41;95618.69;;;9.11;85.12
69171;BME280;56279;47.902;12.308;2023-03-20T04:43:43;95613.94;;;9.08;85.35
69171;BME280;56279;47.902;12.308;2023-03-20T04:45:45;95613.94;;;9.03;84.99
69171;BME280;56279;47.902;12.308;2023-03-20T04:47:47;95617.88;;;9.00;85.29
69171;BME280;56279;47.902;12.308;2023-03-20T04:49:54;95618.13;;;8.99;85.22
69171;BME280;56279;47.902;12.308;2023-03-20T04:51:57;95617.31;;;8.98;85.85
69171;BME280;56279;47.902;12.308;2023-03-20T04:54:10;95627.84;;;8.98;85.46
69171;BME280;56279;47.902;12.308;2023-03-20T04:56:11;95629.19;;;8.96;85.79
69171;BME280;56279;47.902;12.308;2023-03-20T04:58:13;95624.97;;;8.95;85.80
69171;BME280;56279;47.902;12.308;2023-03-20T05:00:15;95626.78;;;8.94;86.01
69171;BME280;56279;47.902;12.308;2023-03-20T05:02:18;95632.06;;;8.94;85.97
69171;BME280;56279;47.902;12.308;2023-03-20T05:04:20;95633.34;;;8.92;86.03
69171;BME280;56279;47.902;12.308;2023-03-20T05:06:21;95634.66;;;8.89;86.39
69171;BME280;56279;47.902;12.308;2023-03-20T05:08:24;95637.56;;;8.88;86.23
69171;BME280;56279;47.902;12.308;2023-03-20T05:10:30;95641.22;;;8.87;86.55
69171;BME280;56279;47.902;12.308;2023-03-20T05:12:39;95635.72;;;8.83;86.66
69171;BME280;56279;47.902;12.308;2023-03-20T05:14:58;95645.94;;;8.80;87.01
69171;BME280;56279;47.902;12.308;2023-03-20T05:17:19;95643.06;;;8.76;87.12
69171;BME280;56279;47.902;12.308;2023-03-20T05:19:45;95644.63;;;8.72;87.15
69171;BME280;56279;47.902;12.308;2023-03-20T05:22:13;95646.41;;;8.67;87.28
69171;BME280;56279;47.902;12.308;2023-03-20T05:24:37;95651.13;;;8.60;87.66
69171;BME280;56279;47.902;12.308;2023-03-20T05:26:53;95662.69;;;8.54;87.68
69171;BME280;56279;47.902;12.308;2023-03-20T05:29:06;95657.91;;;8.51;88.10
69171;BME280;56279;47.902;12.308;2023-03-20T05:31:40;95661.59;;;8.50;88.27
69171;BME280;56279;47.902;12.308;2023-03-20T05:34:08;95659.22;;;8.48;87.95
69171;BME280;56279;47.902;12.308;2023-03-20T05:36:32;95663.69;;;8.48;87.71
69171;BME280;56279;47.902;12.308;2023-03-20T05:38:53;95663.69;;;8.48;88.05
69171;BME280;56279;47.902;12.308;2023-03-20T05:41:17;95667.09;;;8.48;88.22
69171;BME280;56279;47.902;12.308;2023-03-20T05:43:41;95670.53;;;8.49;88.25
69171;BME280;56279;47.902;12.308;2023-03-20T05:46:00;95672.38;;;8.48;88.51
69171;BME280;56279;47.902;12.308;2023-03-20T05:48:05;95678.44;;;8.49;88.42
69171;BME280;56279;47.902;12.308;2023-03-20T05:50:15;95687.13;;;8.49;88.82
69171;BME280;56279;47.902;12.308;2023-03-20T05:52:46;95687.88;;;8.50;88.68
69171;BME280;56279;47.902;12.308;2023-03-20T05:55:07;95683.41;;;8.50;89.19
69171;BME280;56279;47.902;12.308;2023-03-20T05:57:40;95691.06;;;8.52;88.68
69171;BME280;56279;47.902;12.308;2023-03-20T06:00:06;95687.66;;;8.51;89.02
69171;BME280;56279;47.902;12.308;2023-03-20T06:02:11;95683.97;;;8.52;88.79
69171;BME280;56279;47.902;12.308;2023-03-20T06:04:16;95691.06;;;8.52;89.09
69171;BME280;56279;47.902;12.308;2023-03-20T06:06:46;95691.06;;;8.52;89.41
69171;BME280;56279;47.902;12.308;2023-03-20T06:08:49;95685.03;;;8.51;89.28
69171;BME280;56279;47.902;12.308;2023-03-20T06:10:51;95694.75;;;8.51;89.83
69171;BME280;56279;47.902;12.308;2023-03-20T06:12:52;95694.75;;;8.51;90.04
69171;BME280;56279;47.902;12.308;2023-03-20T06:14:59;95694.75;;;8.51;90.00
69171;BME280;56279;47.902;12.308;2023-03-20T06:17:00;95695.53;;;8.51;89.52
69171;BME280;56279;47.902;12.308;2023-03-20T06:19:03;95700.53;;;8.53;89.81
69171;BME280;56279;47.902;12.308;2023-03-20T06:21:05;95704.28;;;8.62;90.07
69171;BME280;56279;47.902;12.308;2023-03-20T06:23:31;95697.47;;;8.66;89.76
69171;BME280;56279;47.902;12.308;2023-03-20T06:25:35;95701.13;;;8.65;89.83
69171;BME280;56279;47.902;12.308;2023-03-20T06:27:37;95697.72;;;8.64;89.47
69171;BME280;56279;47.902;12.308;2023-03-20T06:29:39;95696.91;;;8.64;90.14
69171;BME280;56279;47.902;12.308;2023-03-20T06:31:59;95699.28;;;8.60;90.03
69171;BME280;56279;47.902;12.308;2023-03-20T06:34:03;95700.56;;;8.58;90.20
69171;BME280;56279;47.902;12.308;2023-03-20T06:36:10;95704.78;;;8.59;90.07
69171;BME280;56279;47.902;12.308;2023-03-20T06:38:13;95701.59;;;8.57;90.26
69171;BME280;56279;47.902;12.308;2023-03-20T06:40:15;95707.94;;;8.56;90.21
69171;BME280;56279;47.902;12.308;2023-03-20T06:42:16;95711.34;;;8.56;90.33
69171;BME280;56279;47.902;12.308;2023-03-20T06:44:20;95713.72;;;8.58;89.94
69171;BME280;56279;47.902;12.308;2023-03-20T06:46:44;95718.72;;;8.59;90.31
69171;BME280;56279;47.902;12.308;2023-03-20T06:48:46;95710.59;;;8.61;90.34
69171;BME280;56279;47.902;12.308;2023-03-20T06:50:50;95716.38;;;8.63;90.09
69171;BME280;56279;47.902;12.308;2023-03-20T06:52:53;95720.34;;;8.65;90.57
69171;BME280;56279;47.902;12.308;2023-03-20T06:55:15;95714.81;;;8.67;90.12
69171;BME280;56279;47.902;12.308;2023-03-20T06:57:17;95714.31;;;8.70;90.48
69171;BME280;56279;47.902;12.308;2023-03-20T06:59:18;95716.44;;;8.73;90.17
69171;BME280;56279;47.902;12.308;2023-03-20T07:01:20;95718.03;;;8.74;90.21
69171;BME280;56279;47.902;12.308;2023-03-20T07:03:21;95719.84;;;8.73;90.02
69171;BME280;56279;47.902;12.308;2023-03-20T07:05:24;95728.81;;;8.72;90.15
69171;BME280;56279;47.902;12.308;2023-03-20T07:07:26;95724.59;;;8.71;90.06
69171;BME280;56279;47.902;12.308;2023-03-20T07:09:27;95726.41;;;8.71;90.67
69171;BME280;56279;47.902;12.308;2023-03-20T07:11:31;95723.25;;;8.69;90.17
69171;BME280;56279;47.902;12.308;2023-03-20T07:13:33;95723.56;;;8.72;90.69
69171;BME280;56279;47.902;12.308;2023-03-20T07:15:42;95728.56;;;8.74;90.34
69171;BME280;56279;47.902;12.308;2023-03-20T07:17:46;95732.78;;;8.75;90.64
69171;BME280;56279;47.902;12.308;2023-03-20T07:19:48;95736.97;;;8.76;90.43
69171;BME280;56279;47.902;12.308;2023-03-20T07:21:58;95734.88;;;8.78;90.41
69171;BME280;56279;47.902;12.308;2023-03-20T07:24:04;95742.00;;;8.82;90.09
69171;BME280;56279;47.902;12.308;2023-03-20T07:26:08;95741.78;;;8.84;89.81
69171;BME280;56279;47.902;12.308;2023-03-20T07:28:10;95741.78;;;8.84;90.05
69171;BME280;56279;47.902;12.308;2023-03-20T07:30:16;95748.59;;;8.85;89.91
69171;BME280;56279;47.902;12.308;2023-03-20T07:32:18;95745.19;;;8.84;89.86
69171;BME280;56279;47.902;12.308;2023-03-20T07:34:24;95744.94;;;8.86;90.36
69171;BME280;56279;47.902;12.308;2023-03-20T07:36:26;95750.19;;;8.86;89.91
69171;BME280;56279;47.902;12.308;2023-03-20T07:38:27;95750.19;;;8.86;90.02
69171;BME280;56279;47.902;12.308;2023-03-20T07:40:39;95745.72;;;8.86;90.03
69171;BME280;56279;47.902;12.308;2023-03-20T07:42:45;95752.03;;;8.85;90.28
69171;BME280;56279;47.902;12.308;2023-03-20T07:45:10;95750.19;;;8.86;90.23
69171;BME280;56279;47.902;12.308;2023-03-20T07:47:11;95751.78;;;8.87;90.46
69171;BME280;56279;47.902;12.308;2023-03-20T07:49:13;95761.00;;;8.89;90.28
69171;BME280;56279;47.902;12.308;2023-03-20T07:51:14;95756.53;;;8.90;90.43
69171;BME280;56279;47.902;12.308;2023-03-20T07:53:15;95758.91;;;8.91;90.50
69171;BME280;56279;47.902;12.308;2023-03-20T07:55:17;95758.41;;;8.94;90.47
69171;BME280;56279;47.902;12.308;2023-03-20T07:57:19;95757.63;;;8.99;90.06
69171;BME280;56279;47.902;12.308;2023-03-20T07:59:20;95759.75;;;9.02;90.25
69171;BME280;56279;47.902;12.308;2023-03-20T08:01:22;95757.94;;;9.08;90.52
69171;BME280;56279;47.902;12.308;2023-03-20T08:03:23;95757.72;;;9.14;90.16
69171;BME280;56279;47.902;12.308;2023-03-20T08:05:25;95757.75;;;9.19;89.88
69171;BME280;56279;47.902;12.308;2023-03-20T08:07:27;95765.09;;;9.22;89.88
69171;BME280;56279;47.902;12.308;2023-03-20T08:09:31;95766.72;;;9.23;89.79
69171;BME280;56279;47.902;12.308;2023-03-20T08:11:32;95763.00;;;9.24;89.28
69171;BME280;56279;47.902;12.308;2023-03-20T08:13:33;95764.59;;;9.25;89.41
69171;BME280;56279;47.902;12.308;2023-03-20T08:15:35;95762.50;;;9.27;89.24
69171;BME280;56279;47.902;12.308;2023-03-20T08:17:36;95762.78;;;9.31;89.19
69171;BME280;56279;47.902;12.308;2023-03-20T08:19:37;95762.25;;;9.34;89.15
69171;BME280;56279;47.902;12.308;2023-03-20T08:21:39;95766.22;;;9.36;89.38
69171;BME280;56279;47.902;12.308;2023-03-20T08:23:40;95771.78;;;9.40;88.90
69171;BME280;56279;47.902;12.308;2023-03-20T08:25:49;95765.72;;;9.39;89.01
69171;BME280;56279;47.902;12.308;2023-03-20T08:27:51;95770.47;;;9.42;89.04
69171;BME280;56279;47.902;12.308;2023-03-20T08:29:53;95767.56;;;9.44;89.01
69171;BME280;56279;47.902;12.308;2023-03-20T08:31:54;95770.22;;;9.49;89.01
69171;BME280;56279;47.902;12.308;2023-03-20T08:33:57;95770.50;;;9.47;88.94
69171;BME280;56279;47.902;12.308;2023-03-20T08:35:59;95771.53;;;9.46;88.71
69171;BME280;56279;47.902;12.308;2023-03-20T08:38:00;95772.56;;;9.45;88.93
69171;BME280;56279;47.902;12.308;2023-03-20T08:40:03;95767.31;;;9.45;89.29
69171;BME280;56279;47.902;12.308;2023-03-20T08:42:05;95769.94;;;9.45;88.87
69171;BME280;56279;47.902;12.308;2023-03-20T08:44:07;95780.25;;;9.47;89.03
69171;BME280;56279;47.902;12.308;2023-03-20T08:46:08;95783.66;;;9.47;89.21
69171;BME280;56279;47.902;12.308;2023-03-20T08:48:09;95777.06;;;9.50;88.91
69171;BME280;56279;47.902;12.308;2023-03-20T08:50:12;95773.41;;;9.51;89.23
69171;BME280;56279;47.902;12.308;2023-03-20T08:52:13;95779.72;;;9.55;89.02
69171;BME280;56279;47.902;12.308;2023-03-20T08:54:15;95779.22;;;9.63;88.85
69171;BME280;56279;47.902;12.308;2023-03-20T08:56:18;95776.34;;;9.69;88.51
69171;BME280;56279;47.902;12.308;2023-03-20T08:58:20;95780.06;;;9.79;88.67
69171;BME280;56279;47.902;12.308;2023-03-20T09:00:22;95780.34;;;9.87;88.55
69171;BME280;56279;47.902;12.308;2023-03-20T09:02:23;95777.47;;;9.94;88.15
69171;BME280;56279;47.902;12.308;2023-03-20T09:04:25;95779.06;;;10.00;87.96
69171;BME280;56279;47.902;12.308;2023-03-20T09:06:27;95787.50;;;10.07;87.93
69171;BME280;56279;47.902;12.308;2023-03-20T09:08:29;95779.63;;;10.12;87.73
69171;BME280;56279;47.902;12.308;2023-03-20T09:10:30;95787.56;;;10.17;87.88
69171;BME280;56279;47.902;12.308;2023-03-20T09:12:31;95781.22;;;10.23;87.28
69171;BME280;56279;47.902;12.308;2023-03-20T09:14:33;95779.63;;;10.32;87.12
69171;BME280;56279;47.902;12.308;2023-03-20T09:16:34;95781.25;;;10.43;87.04
69171;BME280;56279;47.902;12.308;2023-03-20T09:18:35;95780.69;;;10.51;86.73
69171;BME280;56279;47.902;12.308;2023-03-20T09:20:36;95778.31;;;10.60;86.51
69171;BME280;56279;47.902;12.308;2023-03-20T09:22:38;95777.00;;;10.72;86.37
69171;BME280;56279;47.902;12.308;2023-03-20T09:24:41;95773.78;;;10.85;85.95
69171;BME280;56279;47.902;12.308;2023-03-20T09:26:42;95775.38;;;10.96;85.55
69171;BME280;56279;47.902;12.308;2023-03-20T09:28:43;95773.75;;;11.10;85.34
69171;BME280;56279;47.902;12.308;2023-03-20T09:30:45;95772.66;;;11.27;84.88
69171;BME280;56279;47.902;12.308;2023-03-20T09:32:46;95765.72;;;11.46;84.29
69171;BME280;56279;47.902;12.308;2023-03-20T09:34:48;95764.59;;;11.57;83.68
69171;BME280;56279;47.902;12.308;2023-03-20T09:36:49;95770.66;;;11.67;83.58
69171;BME280;56279;47.902;12.308;2023-03-20T09:38:51;95759.75;;;11.74;83.14
69171;BME280;56279;47.902;12.308;2023-03-20T09:40:55;95758.16;;;11.83;82.73
69171;BME280;56279;47.902;12.308;2023-03-20T09:43:33;95756.50;;;11.92;82.43
69171;BME280;56279;47.902;12.308;2023-03-20T09:48:02;95750.84;;;12.09;81.80
69171;BME280;56279;47.902;12.308;2023-03-20T09:50:27;95749.19;;;12.18;81.37
69171;BME280;56279;47.902;12.308;2023-03-20T09:52:38;95748.88;;;12.24;80.93
69171;BME280;56279;47.902;12.308;2023-03-20T09:54:43;95752.50;;;12.33;80.79
69171;BME280;56279;47.902;12.308;2023-03-20T09:56:45;95745.59;;;12.37;80.84
69171;BME280;56279;47.902;12.308;2023-03-20T09:58:57;95743.41;;;12.44;80.64
69171;BME280;56279;47.902;12.308;2023-03-20T10:01:02;95741.78;;;12.48;80.22
69171;BME280;56279;47.902;12.308;2023-03-20T10:03:11;95746.50;;;12.57;79.73
69171;BME280;56279;47.902;12.308;2023-03-20T10:07:47;95727.66;;;12.87;79.58
69171;BME280;56279;47.902;12.308;2023-03-20T10:09:48;95724.41;;;12.95;79.04
69171;BME280;56279;47.902;12.308;2023-03-20T10:14:35;95726.91;;;13.10;78.05
69171;BME280;56279;47.902;12.308;2023-03-20T10:22:10;95729.56;;;13.10;75.87
69171;BME280;56279;47.902;12.308;2023-03-20T10:24:27;95725.50;;;13.18;75.88
69171;BME280;56279;47.902;12.308;2023-03-20T10:26:33;95730.91;;;13.31;75.14
69171;BME280;56279;47.902;12.308;2023-03-20T10:28:40;95726.06;;;13.38;75.37
69171;BME280;56279;47.902;12.308;2023-03-20T10:31:21;95722.19;;;13.49;74.88
69171;BME280;56279;47.902;12.308;2023-03-20T10:34:24;95729.72;;;13.61;74.36
69171;BME280;56279;47.902;12.308;2023-03-20T10:39:00;95723.06;;;13.63;74.32
69171;BME280;56279;47.902;12.308;2023-03-20T10:41:14;95719.34;;;13.64;73.79
69171;BME280;56279;47.902;12.308;2023-03-20T10:43:27;95719.28;;;13.69;73.36
69171;BME280;56279;47.902;12.308;2023-03-20T10:45:49;95711.53;;;13.73;72.61
69171;BME280;56279;47.902;12.308;2023-03-20T10:47:53;95709.63;;;13.78;72.63
69171;BME280;56279;47.902;12.308;2023-03-20T10:50:04;95704.66;;;13.91;72.14
69171;BME280;56279;47.902;12.308;2023-03-20T10:52:16;95700.72;;;14.07;72.48
69171;BME280;56279;47.902;12.308;2023-03-20T10:54:37;95699.75;;;14.16;71.59
69171;BME280;56279;47.902;12.308;2023-03-20T10:56:45;95702.91;;;14.18;70.79
69171;BME280;56279;47.902;12.308;2023-03-20T10:58:56;95704.66;;;14.09;70.37
69171;BME280;56279;47.902;12.308;2023-03-20T11:00:59;95700.84;;;13.97;70.81
69171;BME280;56279;47.902;12.308;2023-03-20T11:03:00;95697.78;;;13.90;70.07
69171;BME280;56279;47.902;12.308;2023-03-20T11:05:33;95706.41;;;13.81;72.10
69171;BME280;56279;47.902;12.308;2023-03-20T11:07:37;95704.31;;;13.78;71.35
69171;BME280;56279;47.902;12.308;2023-03-20T11:09:38;95706.09;;;13.83;70.91
69171;BME280;56279;47.902;12.308;2023-03-20T11:11:39;95699.63;;;13.89;69.98
69171;BME280;56279;47.902;12.308;2023-03-20T11:13:44;95694.06;;;13.91;69.71
69171;BME280;56279;47.902;12.308;2023-03-20T11:15:45;95703.75;;;13.81;69.19
69171;BME280;56279;47.902;12.308;2023-03-20T11:20:02;95700.78;;;13.83;68.73
69171;BME280;56279;47.902;12.308;2023-03-20T11:22:25;95704.75;;;13.85;68.87
69171;BME280;56279;47.902;12.308;2023-03-20T11:24:57;95702.22;;;13.94;68.74
69171;BME280;56279;47.902;12.308;2023-03-20T11:27:25;95692.31;;;14.00;68.44
69171;BME280;56279;47.902;12.308;2023-03-20T11:29:31;95698.19;;;13.97;67.85
69171;BME280;56279;47.902;12.308;2023-03-20T11:31:37;95697.47;;;13.91;67.83
69171;BME280;56279;47.902;12.308;2023-03-20T11:33:45;95699.69;;;13.84;68.16
69171;BME280;56279;47.902;12.308;2023-03-20T11:35:52;95701.16;;;13.76;68.08
69171;BME280;56279;47.902;12.308;2023-03-20T11:38:15;95699.38;;;13.72;67.89
69171;BME280;56279;47.902;12.308;2023-03-20T11:40:32;95696.47;;;13.68;68.70
69171;BME280;56279;47.902;12.308;2023-03-20T11:42:33;95696.78;;;13.67;68.22
69171;BME280;56279;47.902;12.308;2023-03-20T11:44:36;95694.19;;;13.62;68.15
69171;BME280;56279;47.902;12.308;2023-03-20T11:46:38;95688.16;;;13.56;68.16
69171;BME280;56279;47.902;12.308;2023-03-20T11:48:42;95687.22;;;13.47;67.65
69171;BME280;56279;47.902;12.308;2023-03-20T11:51:01;95686.06;;;13.35;67.80
69171;BME280;56279;47.902;12.308;2023-03-20T11:53:22;95685.84;;;13.31;68.34
69171;BME280;56279;47.902;12.308;2023-03-20T11:55:30;95678.88;;;13.35;68.37
69171;BME280;56279;47.902;12.308;2023-03-20T11:57:38;95675.91;;;13.42;67.98
69171;BME280;56279;47.902;12.308;2023-03-20T11:59:40;95679.00;;;13.49;67.42
69171;BME280;56279;47.902;12.308;2023-03-20T12:01:54;95680.25;;;13.51;66.71
69171;BME280;56279;47.902;12.308;2023-03-20T12:06:07;95676.25;;;13.54;66.58
69171;BME280;56279;47.902;12.308;2023-03-20T12:08:15;95675.69;;;13.57;66.43
69171;BME280;56279;47.902;12.308;2023-03-20T12:10:20;95669.75;;;13.65;66.10
69171;BME280;56279;47.902;12.308;2023-03-20T12:19:39;95666.69;;;14.09;65.68
69171;BME280;56279;47.902;12.308;2023-03-20T12:21:45;95664.88;;;14.23;64.96